sensor_id;sensor_type;location;lat;lon;timestamp;pressure;altitude;pressure_sealevel;temperature;humidity
76680;BME280;65597;51.520;-0.224;2023-05-02T00:00:02;102192.09;;;12.94;41.88
76680;BME280;65597;51.520;-0.224;2023-05-02T00:02:28;102192.52;;;12.73;42.15
76680;BME280;65597;51.520;-0.224;2023-05-02T00:04:52;102193.46;;;12.79;42.16
76680;BME280;65597;51.520;-0.224;2023-05-02T00:07:17;102196.63;;;12.90;41.97
76680;BME280;65597;51.520;-0.224;2023-05-02T00:09:43;102194.61;;;13.15;41.63
76680;BME280;65597;51.520;-0.224;2023-05-02T00:12:08;102195.60;;;13.28;41.40
76680;BME280;65597;51.520;-0.224;2023-05-02T00:14:35;102194.90;;;13.16;41.56
76680;BME280;65597;51.520;-0.224;2023-05-02T00:16:59;102201.25;;;13.06;41.75
76680;BME280;65597;51.520;-0.224;2023-05-02T00:19:24;102202.02;;;12.96;41.92
76680;BME280;65597;51.520;-0.224;2023-05-02T00:21:55;102198.44;;;13.01;41.83
76680;BME280;65597;51.520;-0.224;2023-05-02T00:24:16;102195.90;;;13.17;41.61
76680;BME280;65597;51.520;-0.224;2023-05-02T00:26:41;102197.07;;;13.32;41.46
76680;BME280;65597;51.520;-0.224;2023-05-02T00:29:06;102196.04;;;13.26;41.62
76680;BME280;65597;51.520;-0.224;2023-05-02T00:31:31;102196.73;;;13.13;41.88
76680;BME280;65597;51.520;-0.224;2023-05-02T00:33:57;102194.71;;;13.32;41.48
76680;BME280;65597;51.520;-0.224;2023-05-02T00:36:22;102195.45;;;13.38;41.40
76680;BME280;65597;51.520;-0.224;2023-05-02T00:38:49;102199.89;;;13.48;41.30
76680;BME280;65597;51.520;-0.224;2023-05-02T00:41:15;102204.65;;;13.48;41.38
76680;BME280;65597;51.520;-0.224;2023-05-02T00:43:39;102204.86;;;13.35;41.32
76680;BME280;65597;51.520;-0.224;2023-05-02T00:46:05;102204.98;;;13.50;41.57
76680;BME280;65597;51.520;-0.224;2023-05-02T00:48:29;102206.33;;;13.36;41.39
76680;BME280;65597;51.520;-0.224;2023-05-02T00:50:57;102208.40;;;13.67;41.36
76680;BME280;65597;51.520;-0.224;2023-05-02T00:53:20;102210.69;;;13.69;41.38
76680;BME280;65597;51.520;-0.224;2023-05-02T00:55:51;102210.42;;;13.70;41.47
76680;BME280;65597;51.520;-0.224;2023-05-02T00:58:18;102210.70;;;13.69;41.57
76680;BME280;65597;51.520;-0.224;2023-05-02T01:00:49;102211.78;;;13.49;41.89
76680;BME280;65597;51.520;-0.224;2023-05-02T01:03:11;102213.39;;;13.33;41.81
76680;BME280;65597;51.520;-0.224;2023-05-02T01:05:37;102214.83;;;13.60;41.93
76680;BME280;65597;51.520;-0.224;2023-05-02T01:08:02;102215.36;;;13.63;41.82
76680;BME280;65597;51.520;-0.224;2023-05-02T01:10:24;102217.43;;;13.39;41.81
76680;BME280;65597;51.520;-0.224;2023-05-02T01:12:47;102219.28;;;13.63;41.86
76680;BME280;65597;51.520;-0.224;2023-05-02T01:15:15;102217.81;;;13.42;41.79
76680;BME280;65597;51.520;-0.224;2023-05-02T01:17:34;102219.76;;;13.66;41.74
76680;BME280;65597;51.520;-0.224;2023-05-02T01:20:03;102222.52;;;13.54;41.87
76680;BME280;65597;51.520;-0.224;2023-05-02T01:22:27;102224.27;;;13.61;41.79
76680;BME280;65597;51.520;-0.224;2023-05-02T01:25:00;102227.37;;;13.58;41.80
76680;BME280;65597;51.520;-0.224;2023-05-02T01:27:23;102228.11;;;13.63;41.70
76680;BME280;65597;51.520;-0.224;2023-05-02T01:29:42;102232.63;;;13.54;41.75
76680;BME280;65597;51.520;-0.224;2023-05-02T01:32:08;102237.97;;;13.38;41.63
76680;BME280;65597;51.520;-0.224;2023-05-02T01:34:32;102236.94;;;13.55;41.69
76680;BME280;65597;51.520;-0.224;2023-05-02T01:37:00;102233.22;;;13.31;41.65
76680;BME280;65597;51.520;-0.224;2023-05-02T01:39:26;102238.38;;;13.28;41.64
76680;BME280;65597;51.520;-0.224;2023-05-02T01:41:49;102237.95;;;13.46;41.68
76680;BME280;65597;51.520;-0.224;2023-05-02T01:44:14;102240.15;;;13.48;41.66
76680;BME280;65597;51.520;-0.224;2023-05-02T01:46:41;102242.80;;;13.48;41.60
76680;BME280;65597;51.520;-0.224;2023-05-02T01:49:06;102243.03;;;13.36;41.89
76680;BME280;65597;51.520;-0.224;2023-05-02T01:51:33;102244.68;;;13.41;41.63
76680;BME280;65597;51.520;-0.224;2023-05-02T01:53:56;102252.88;;;13.09;42.02
76680;BME280;65597;51.520;-0.224;2023-05-02T01:56:22;102252.46;;;12.90;41.93
76680;BME280;65597;51.520;-0.224;2023-05-02T01:58:46;102257.50;;;13.19;41.91
76680;BME280;65597;51.520;-0.224;2023-05-02T02:01:12;102265.49;;;13.18;41.83
76680;BME280;65597;51.520;-0.224;2023-05-02T02:03:37;102273.64;;;13.17;41.77
76680;BME280;65597;51.520;-0.224;2023-05-02T02:06:03;102273.30;;;13.20;41.87
76680;BME280;65597;51.520;-0.224;2023-05-02T02:08:27;102275.17;;;13.26;41.80
76680;BME280;65597;51.520;-0.224;2023-05-02T02:10:56;102272.29;;;13.50;41.74
76680;BME280;65597;51.520;-0.224;2023-05-02T02:13:25;102270.20;;;13.20;41.92
76680;BME280;65597;51.520;-0.224;2023-05-02T02:15:46;102274.09;;;13.08;42.13
76680;BME280;65597;51.520;-0.224;2023-05-02T02:18:12;102276.34;;;13.14;41.99
76680;BME280;65597;51.520;-0.224;2023-05-02T02:20:35;102278.95;;;12.72;42.67
76680;BME280;65597;51.520;-0.224;2023-05-02T02:23:02;102281.36;;;12.86;42.50
76680;BME280;65597;51.520;-0.224;2023-05-02T02:25:25;102282.50;;;12.81;42.54
76680;BME280;65597;51.520;-0.224;2023-05-02T02:27:52;102286.20;;;12.93;42.42
76680;BME280;65597;51.520;-0.224;2023-05-02T02:30:16;102287.86;;;13.05;42.43
76680;BME280;65597;51.520;-0.224;2023-05-02T02:32:41;102296.77;;;13.16;42.29
76680;BME280;65597;51.520;-0.224;2023-05-02T02:35:07;102298.66;;;13.24;42.22
76680;BME280;65597;51.520;-0.224;2023-05-02T02:37:34;102305.31;;;12.87;42.53
76680;BME280;65597;51.520;-0.224;2023-05-02T02:40:04;102309.44;;;12.95;42.37
76680;BME280;65597;51.520;-0.224;2023-05-02T02:42:31;102309.22;;;12.97;42.49
76680;BME280;65597;51.520;-0.224;2023-05-02T02:44:55;102308.46;;;13.03;42.30
76680;BME280;65597;51.520;-0.224;2023-05-02T02:47:20;102311.19;;;13.30;42.20
76680;BME280;65597;51.520;-0.224;2023-05-02T02:49:46;102312.35;;;13.22;42.77
76680;BME280;65597;51.520;-0.224;2023-05-02T02:52:09;102319.08;;;12.94;42.52
76680;BME280;65597;51.520;-0.224;2023-05-02T02:54:33;102320.68;;;12.95;42.76
76680;BME280;65597;51.520;-0.224;2023-05-02T02:57:00;102321.37;;;13.08;42.53
76680;BME280;65597;51.520;-0.224;2023-05-02T02:59:26;102326.47;;;12.90;42.64
76680;BME280;65597;51.520;-0.224;2023-05-02T03:01:49;102327.32;;;13.14;42.55
76680;BME280;65597;51.520;-0.224;2023-05-02T03:04:11;102327.90;;;13.15;42.61
76680;BME280;65597;51.520;-0.224;2023-05-02T03:06:36;102331.15;;;12.94;42.55
76680;BME280;65597;51.520;-0.224;2023-05-02T03:09:01;102329.87;;;12.86;42.74
76680;BME280;65597;51.520;-0.224;2023-05-02T03:11:26;102330.61;;;13.03;42.68
76680;BME280;65597;51.520;-0.224;2023-05-02T03:13:51;102332.17;;;13.13;42.53
76680;BME280;65597;51.520;-0.224;2023-05-02T03:16:30;102332.72;;;12.91;42.52
76680;BME280;65597;51.520;-0.224;2023-05-02T03:18:42;102334.53;;;13.12;42.49
76680;BME280;65597;51.520;-0.224;2023-05-02T03:21:08;102340.64;;;12.90;42.47
76680;BME280;65597;51.520;-0.224;2023-05-02T03:23:33;102345.51;;;13.19;42.45
76680;BME280;65597;51.520;-0.224;2023-05-02T03:25:58;102344.84;;;12.95;42.58
76680;BME280;65597;51.520;-0.224;2023-05-02T03:28:25;102346.55;;;12.89;42.61
76680;BME280;65597;51.520;-0.224;2023-05-02T03:30:49;102348.24;;;12.88;42.62
76680;BME280;65597;51.520;-0.224;2023-05-02T03:33:14;102355.28;;;12.94;42.47
76680;BME280;65597;51.520;-0.224;2023-05-02T03:35:40;102356.48;;;13.02;42.75
76680;BME280;65597;51.520;-0.224;2023-05-02T03:38:05;102358.52;;;13.14;42.76
76680;BME280;65597;51.520;-0.224;2023-05-02T03:40:32;102362.64;;;13.15;42.59
76680;BME280;65597;51.520;-0.224;2023-05-02T03:42:56;102361.40;;;12.89;42.64
76680;BME280;65597;51.520;-0.224;2023-05-02T03:45:21;102363.96;;;13.14;42.68
76680;BME280;65597;51.520;-0.224;2023-05-02T03:47:47;102363.13;;;13.39;42.75
76680;BME280;65597;51.520;-0.224;2023-05-02T03:50:12;102363.42;;;12.88;42.76
76680;BME280;65597;51.520;-0.224;2023-05-02T03:52:37;102361.57;;;13.09;42.94
76680;BME280;65597;51.520;-0.224;2023-05-02T03:55:04;102360.99;;;13.09;43.01
76680;BME280;65597;51.520;-0.224;2023-05-02T03:57:29;102361.36;;;12.99;43.08
76680;BME280;65597;51.520;-0.224;2023-05-02T03:59:54;102365.42;;;13.04;42.97
76680;BME280;65597;51.520;-0.224;2023-05-02T04:02:19;102370.62;;;13.06;42.89
76680;BME280;65597;51.520;-0.224;2023-05-02T04:04:46;102377.31;;;12.76;43.06
76680;BME280;65597;51.520;-0.224;2023-05-02T04:07:10;102383.11;;;13.04;43.42
76680;BME280;65597;51.520;-0.224;2023-05-02T04:09:35;102386.19;;;12.72;43.16
76680;BME280;65597;51.520;-0.224;2023-05-02T04:12:00;102385.82;;;12.70;43.25
76680;BME280;65597;51.520;-0.224;2023-05-02T04:14:26;102387.72;;;12.65;43.31
76680;BME280;65597;51.520;-0.224;2023-05-02T04:16:51;102387.28;;;13.00;43.09
76680;BME280;65597;51.520;-0.224;2023-05-02T04:19:17;102385.80;;;13.00;43.03
76680;BME280;65597;51.520;-0.224;2023-05-02T04:21:42;102383.05;;;13.20;43.18
76680;BME280;65597;51.520;-0.224;2023-05-02T04:24:08;102379.33;;;13.24;43.22
76680;BME280;65597;51.520;-0.224;2023-05-02T04:26:33;102381.12;;;13.07;43.44
76680;BME280;65597;51.520;-0.224;2023-05-02T04:28:58;102388.96;;;12.66;43.31
76680;BME280;65597;51.520;-0.224;2023-05-02T04:31:23;102390.06;;;12.69;43.65
76680;BME280;65597;51.520;-0.224;2023-05-02T04:33:49;102391.57;;;13.05;43.35
76680;BME280;65597;51.520;-0.224;2023-05-02T04:36:14;102391.89;;;12.87;43.34
76680;BME280;65597;51.520;-0.224;2023-05-02T04:38:40;102398.87;;;12.87;43.50
76680;BME280;65597;51.520;-0.224;2023-05-02T04:41:07;102399.09;;;12.57;43.55
76680;BME280;65597;51.520;-0.224;2023-05-02T04:43:31;102400.31;;;12.80;43.53
76680;BME280;65597;51.520;-0.224;2023-05-02T04:46:02;102404.44;;;12.62;43.51
76680;BME280;65597;51.520;-0.224;2023-05-02T04:48:22;102412.46;;;12.81;43.60
76680;BME280;65597;51.520;-0.224;2023-05-02T04:50:48;102420.23;;;12.78;43.54
76680;BME280;65597;51.520;-0.224;2023-05-02T04:53:13;102423.43;;;12.72;43.54
76680;BME280;65597;51.520;-0.224;2023-05-02T04:55:38;102423.39;;;12.93;43.44
76680;BME280;65597;51.520;-0.224;2023-05-02T04:58:03;102426.34;;;12.52;43.58
76680;BME280;65597;51.520;-0.224;2023-05-02T05:00:28;102429.46;;;13.01;43.72
76680;BME280;65597;51.520;-0.224;2023-05-02T05:02:54;102430.90;;;12.81;43.55
76680;BME280;65597;51.520;-0.224;2023-05-02T05:05:19;102436.42;;;12.78;43.55
76680;BME280;65597;51.520;-0.224;2023-05-02T05:07:50;102442.52;;;12.85;43.47
76680;BME280;65597;51.520;-0.224;2023-05-02T05:10:10;102445.01;;;13.07;43.53
76680;BME280;65597;51.520;-0.224;2023-05-02T05:12:36;102451.80;;;12.60;44.33
76680;BME280;65597;51.520;-0.224;2023-05-02T05:15:01;102448.56;;;12.73;43.65
76680;BME280;65597;51.520;-0.224;2023-05-02T05:17:27;102452.72;;;12.92;43.64
76680;BME280;65597;51.520;-0.224;2023-05-02T05:19:52;102452.04;;;12.70;43.61
76680;BME280;65597;51.520;-0.224;2023-05-02T05:22:18;102458.05;;;12.38;43.91
76680;BME280;65597;51.520;-0.224;2023-05-02T05:24:51;102461.09;;;12.59;43.74
76680;BME280;65597;51.520;-0.224;2023-05-02T05:27:08;102458.39;;;12.36;43.45
76680;BME280;65597;51.520;-0.224;2023-05-02T05:29:35;102462.78;;;12.63;43.56
76680;BME280;65597;51.520;-0.224;2023-05-02T05:32:04;102463.81;;;12.64;43.44
76680;BME280;65597;51.520;-0.224;2023-05-02T05:34:25;102466.33;;;12.81;43.11
76680;BME280;65597;51.520;-0.224;2023-05-02T05:36:50;102470.32;;;12.74;43.22
76680;BME280;65597;51.520;-0.224;2023-05-02T05:39:15;102473.81;;;12.54;43.14
76680;BME280;65597;51.520;-0.224;2023-05-02T05:41:41;102474.61;;;12.78;43.25
76680;BME280;65597;51.520;-0.224;2023-05-02T05:44:06;102478.54;;;12.60;43.49
76680;BME280;65597;51.520;-0.224;2023-05-02T05:46:31;102482.67;;;12.59;43.68
76680;BME280;65597;51.520;-0.224;2023-05-02T05:48:57;102488.66;;;12.38;43.64
76680;BME280;65597;51.520;-0.224;2023-05-02T05:51:22;102496.13;;;12.29;43.35
76680;BME280;65597;51.520;-0.224;2023-05-02T05:53:48;102498.99;;;12.68;43.31
76680;BME280;65597;51.520;-0.224;2023-05-02T05:56:17;102502.98;;;12.51;42.86
76680;BME280;65597;51.520;-0.224;2023-05-02T05:58:38;102507.41;;;12.55;42.97
76680;BME280;65597;51.520;-0.224;2023-05-02T06:01:04;102510.36;;;12.30;42.89
76680;BME280;65597;51.520;-0.224;2023-05-02T06:03:29;102512.42;;;12.43;43.16
76680;BME280;65597;51.520;-0.224;2023-05-02T06:05:56;102513.27;;;12.47;43.23
76680;BME280;65597;51.520;-0.224;2023-05-02T06:08:20;102515.50;;;12.78;43.02
76680;BME280;65597;51.520;-0.224;2023-05-02T06:10:45;102518.23;;;12.43;43.11
76680;BME280;65597;51.520;-0.224;2023-05-02T06:13:10;102519.35;;;12.66;43.07
76680;BME280;65597;51.520;-0.224;2023-05-02T06:15:36;102516.39;;;12.45;43.09
76680;BME280;65597;51.520;-0.224;2023-05-02T06:18:01;102516.85;;;12.80;42.91
76680;BME280;65597;51.520;-0.224;2023-05-02T06:20:26;102522.44;;;12.27;43.17
76680;BME280;65597;51.520;-0.224;2023-05-02T06:22:52;102523.77;;;12.58;43.26
76680;BME280;65597;51.520;-0.224;2023-05-02T06:25:17;102529.49;;;12.51;42.97
76680;BME280;65597;51.520;-0.224;2023-05-02T06:27:42;102529.79;;;12.73;43.23
76680;BME280;65597;51.520;-0.224;2023-05-02T06:30:08;102530.35;;;12.50;43.19
76680;BME280;65597;51.520;-0.224;2023-05-02T06:32:33;102528.96;;;12.78;43.31
76680;BME280;65597;51.520;-0.224;2023-05-02T06:34:58;102533.79;;;12.63;43.16
76680;BME280;65597;51.520;-0.224;2023-05-02T06:37:23;102527.98;;;12.80;43.31
76680;BME280;65597;51.520;-0.224;2023-05-02T06:39:49;102523.54;;;12.64;43.56
76680;BME280;65597;51.520;-0.224;2023-05-02T06:42:14;102521.32;;;12.64;43.66
76680;BME280;65597;51.520;-0.224;2023-05-02T06:44:39;102525.58;;;12.72;43.58
76680;BME280;65597;51.520;-0.224;2023-05-02T06:47:05;102529.44;;;12.34;43.79
76680;BME280;65597;51.520;-0.224;2023-05-02T06:49:30;102533.69;;;12.35;43.79
76680;BME280;65597;51.520;-0.224;2023-05-02T06:51:55;102538.35;;;12.45;43.50
76680;BME280;65597;51.520;-0.224;2023-05-02T06:54:22;102539.86;;;12.49;43.67
76680;BME280;65597;51.520;-0.224;2023-05-02T06:56:46;102537.88;;;12.66;43.69
76680;BME280;65597;51.520;-0.224;2023-05-02T06:59:11;102536.85;;;12.35;43.77
76680;BME280;65597;51.520;-0.224;2023-05-02T07:01:37;102537.69;;;12.42;43.71
76680;BME280;65597;51.520;-0.224;2023-05-02T07:04:02;102537.30;;;12.58;44.11
76680;BME280;65597;51.520;-0.224;2023-05-02T07:06:27;102541.34;;;12.51;43.71
76680;BME280;65597;51.520;-0.224;2023-05-02T07:08:52;102547.62;;;12.81;43.67
76680;BME280;65597;51.520;-0.224;2023-05-02T07:11:23;102550.16;;;12.70;43.61
76680;BME280;65597;51.520;-0.224;2023-05-02T07:13:43;102552.07;;;12.19;43.74
76680;BME280;65597;51.520;-0.224;2023-05-02T07:16:08;102553.95;;;12.27;43.66
76680;BME280;65597;51.520;-0.224;2023-05-02T07:18:34;102554.07;;;12.86;43.52
76680;BME280;65597;51.520;-0.224;2023-05-02T07:20:59;102553.34;;;12.88;43.45
76680;BME280;65597;51.520;-0.224;2023-05-02T07:23:24;102555.98;;;12.73;43.23
76680;BME280;65597;51.520;-0.224;2023-05-02T07:25:50;102559.67;;;12.45;43.44
76680;BME280;65597;51.520;-0.224;2023-05-02T07:28:15;102558.03;;;12.90;43.13
76680;BME280;65597;51.520;-0.224;2023-05-02T07:30:41;102562.62;;;12.95;43.08
76680;BME280;65597;51.520;-0.224;2023-05-02T07:33:06;102563.31;;;12.65;43.23
76680;BME280;65597;51.520;-0.224;2023-05-02T07:35:31;102563.75;;;12.90;43.28
76680;BME280;65597;51.520;-0.224;2023-05-02T07:37:57;102566.50;;;12.88;44.48
76680;BME280;65597;51.520;-0.224;2023-05-02T07:40:22;102569.62;;;12.66;43.04
76680;BME280;65597;51.520;-0.224;2023-05-02T07:42:48;102573.07;;;12.59;43.32
76680;BME280;65597;51.520;-0.224;2023-05-02T07:45:13;102573.13;;;12.39;43.58
76680;BME280;65597;51.520;-0.224;2023-05-02T07:47:38;102573.35;;;12.29;43.47
76680;BME280;65597;51.520;-0.224;2023-05-02T07:50:04;102571.44;;;12.90;43.43
76680;BME280;65597;51.520;-0.224;2023-05-02T07:52:29;102571.97;;;12.61;43.56
76680;BME280;65597;51.520;-0.224;2023-05-02T07:54:55;102572.40;;;12.37;43.32
76680;BME280;65597;51.520;-0.224;2023-05-02T07:57:20;102569.89;;;12.83;43.30
76680;BME280;65597;51.520;-0.224;2023-05-02T07:59:45;102569.95;;;12.47;43.09
76680;BME280;65597;51.520;-0.224;2023-05-02T08:02:10;102572.11;;;12.94;43.28
76680;BME280;65597;51.520;-0.224;2023-05-02T08:04:36;102574.74;;;12.70;43.39
76680;BME280;65597;51.520;-0.224;2023-05-02T08:07:02;102570.84;;;12.29;43.62
76680;BME280;65597;51.520;-0.224;2023-05-02T08:09:26;102574.57;;;12.88;43.72
76680;BME280;65597;51.520;-0.224;2023-05-02T08:11:52;102571.49;;;12.81;43.90
76680;BME280;65597;51.520;-0.224;2023-05-02T08:14:17;102572.38;;;12.76;43.87
76680;BME280;65597;51.520;-0.224;2023-05-02T08:16:43;102573.50;;;12.51;43.88
76680;BME280;65597;51.520;-0.224;2023-05-02T08:19:09;102575.80;;;12.27;43.95
76680;BME280;65597;51.520;-0.224;2023-05-02T08:21:33;102578.42;;;12.24;44.00
76680;BME280;65597;51.520;-0.224;2023-05-02T08:23:59;102580.67;;;12.91;43.87
76680;BME280;65597;51.520;-0.224;2023-05-02T08:26:24;102580.32;;;12.63;44.10
76680;BME280;65597;51.520;-0.224;2023-05-02T08:28:50;102584.64;;;12.68;43.76
76680;BME280;65597;51.520;-0.224;2023-05-02T08:31:15;102585.18;;;12.88;43.75
76680;BME280;65597;51.520;-0.224;2023-05-02T08:33:39;102584.14;;;12.62;43.95
76680;BME280;65597;51.520;-0.224;2023-05-02T08:36:10;102584.68;;;12.95;43.77
76680;BME280;65597;51.520;-0.224;2023-05-02T08:38:30;102581.48;;;12.87;43.83
76680;BME280;65597;51.520;-0.224;2023-05-02T08:40:55;102587.78;;;12.89;44.10
76680;BME280;65597;51.520;-0.224;2023-05-02T08:43:23;102595.06;;;12.84;43.34
76680;BME280;65597;51.520;-0.224;2023-05-02T08:45:48;102601.07;;;12.65;43.19
76680;BME280;65597;51.520;-0.224;2023-05-02T08:48:12;102605.05;;;12.76;43.04
76680;BME280;65597;51.520;-0.224;2023-05-02T08:50:38;102606.25;;;13.03;43.09
76680;BME280;65597;51.520;-0.224;2023-05-02T08:53:03;102611.29;;;12.68;43.03
76680;BME280;65597;51.520;-0.224;2023-05-02T08:55:28;102612.87;;;12.83;42.81
76680;BME280;65597;51.520;-0.224;2023-05-02T08:57:56;102616.03;;;13.00;42.56
76680;BME280;65597;51.520;-0.224;2023-05-02T09:00:19;102620.78;;;12.92;42.33
76680;BME280;65597;51.520;-0.224;2023-05-02T09:02:55;102627.74;;;12.58;42.59
76680;BME280;65597;51.520;-0.224;2023-05-02T09:05:11;102631.64;;;12.42;42.42
76680;BME280;65597;51.520;-0.224;2023-05-02T09:07:43;102635.37;;;12.76;42.44
76680;BME280;65597;51.520;-0.224;2023-05-02T09:10:02;102635.27;;;12.88;42.12
76680;BME280;65597;51.520;-0.224;2023-05-02T09:12:26;102633.98;;;12.83;41.69
76680;BME280;65597;51.520;-0.224;2023-05-02T09:17:17;102641.73;;;12.79;41.39
76680;BME280;65597;51.520;-0.224;2023-05-02T09:19:43;102646.48;;;12.63;41.39
76680;BME280;65597;51.520;-0.224;2023-05-02T09:22:07;102651.65;;;12.70;41.47
76680;BME280;65597;51.520;-0.224;2023-05-02T09:24:33;102649.75;;;12.63;41.37
76680;BME280;65597;51.520;-0.224;2023-05-02T09:26:59;102651.33;;;12.69;41.69
76680;BME280;65597;51.520;-0.224;2023-05-02T09:29:25;102658.25;;;12.65;41.40
76680;BME280;65597;51.520;-0.224;2023-05-02T09:31:50;102656.24;;;13.20;41.14
76680;BME280;65597;51.520;-0.224;2023-05-02T09:34:15;102652.49;;;12.62;41.52
76680;BME280;65597;51.520;-0.224;2023-05-02T09:36:42;102656.18;;;12.71;41.21
76680;BME280;65597;51.520;-0.224;2023-05-02T09:39:08;102658.66;;;12.72;41.70
76680;BME280;65597;51.520;-0.224;2023-05-02T09:41:39;102664.81;;;12.84;41.28
76680;BME280;65597;51.520;-0.224;2023-05-02T09:43:56;102671.79;;;12.92;41.66
76680;BME280;65597;51.520;-0.224;2023-05-02T09:46:22;102672.02;;;12.92;41.62
76680;BME280;65597;51.520;-0.224;2023-05-02T09:48:52;102672.57;;;12.69;41.98
76680;BME280;65597;51.520;-0.224;2023-05-02T09:51:16;102672.56;;;12.77;41.23
76680;BME280;65597;51.520;-0.224;2023-05-02T09:53:42;102672.58;;;12.82;41.29
76680;BME280;65597;51.520;-0.224;2023-05-02T09:56:04;102671.77;;;12.82;41.19
76680;BME280;65597;51.520;-0.224;2023-05-02T09:58:29;102671.03;;;12.56;41.39
76680;BME280;65597;51.520;-0.224;2023-05-02T10:00:54;102667.12;;;12.48;41.59
76680;BME280;65597;51.520;-0.224;2023-05-02T10:03:22;102668.44;;;12.82;41.23
76680;BME280;65597;51.520;-0.224;2023-05-02T10:05:45;102664.94;;;12.45;41.30
76680;BME280;65597;51.520;-0.224;2023-05-02T10:08:10;102661.84;;;12.44;41.58
76680;BME280;65597;51.520;-0.224;2023-05-02T10:10:37;102662.23;;;13.11;41.25
76680;BME280;65597;51.520;-0.224;2023-05-02T10:13:02;102659.14;;;12.74;41.55
76680;BME280;65597;51.520;-0.224;2023-05-02T10:15:29;102661.91;;;12.67;40.61
76680;BME280;65597;51.520;-0.224;2023-05-02T10:17:52;102666.71;;;12.96;40.44
76680;BME280;65597;51.520;-0.224;2023-05-02T10:20:22;102667.67;;;12.73;40.08
76680;BME280;65597;51.520;-0.224;2023-05-02T10:22:44;102667.03;;;12.83;40.30
76680;BME280;65597;51.520;-0.224;2023-05-02T10:25:08;102671.56;;;12.88;39.95
76680;BME280;65597;51.520;-0.224;2023-05-02T10:27:33;102675.24;;;12.62;39.94
76680;BME280;65597;51.520;-0.224;2023-05-02T10:29:59;102679.26;;;12.82;40.51
76680;BME280;65597;51.520;-0.224;2023-05-02T10:32:27;102679.16;;;13.15;39.77
76680;BME280;65597;51.520;-0.224;2023-05-02T10:34:50;102682.59;;;13.08;39.92
76680;BME280;65597;51.520;-0.224;2023-05-02T10:37:15;102687.15;;;13.09;39.41
76680;BME280;65597;51.520;-0.224;2023-05-02T10:39:40;102684.67;;;13.08;39.37
76680;BME280;65597;51.520;-0.224;2023-05-02T10:42:06;102688.66;;;13.36;39.73
76680;BME280;65597;51.520;-0.224;2023-05-02T10:44:32;102684.39;;;13.16;38.91
76680;BME280;65597;51.520;-0.224;2023-05-02T10:46:56;102690.16;;;13.11;38.83
76680;BME280;65597;51.520;-0.224;2023-05-02T10:49:21;102697.85;;;12.97;39.12
76680;BME280;65597;51.520;-0.224;2023-05-02T10:51:46;102694.21;;;13.19;38.43
76680;BME280;65597;51.520;-0.224;2023-05-02T10:54:19;102692.43;;;13.20;39.23
76680;BME280;65597;51.520;-0.224;2023-05-02T11:01:35;102706.24;;;13.27;38.23
76680;BME280;65597;51.520;-0.224;2023-05-02T11:03:54;102709.94;;;13.44;38.25
76680;BME280;65597;51.520;-0.224;2023-05-02T11:06:18;102711.14;;;13.56;38.03
76680;BME280;65597;51.520;-0.224;2023-05-02T11:08:47;102712.78;;;13.02;37.79
76680;BME280;65597;51.520;-0.224;2023-05-02T11:13:48;102713.80;;;12.96;37.80
76680;BME280;65597;51.520;-0.224;2023-05-02T11:16:01;102710.75;;;13.05;37.74
76680;BME280;65597;51.520;-0.224;2023-05-02T11:18:25;102713.54;;;13.18;37.60
76680;BME280;65597;51.520;-0.224;2023-05-02T11:20:51;102716.51;;;13.05;38.18
76680;BME280;65597;51.520;-0.224;2023-05-02T11:23:22;102714.81;;;13.24;38.50
76680;BME280;65597;51.520;-0.224;2023-05-02T11:25:43;102709.69;;;13.64;37.98
76680;BME280;65597;51.520;-0.224;2023-05-02T11:30:38;102700.10;;;13.84;37.50
76680;BME280;65597;51.520;-0.224;2023-05-02T11:33:12;102694.93;;;13.27;37.11
76680;BME280;65597;51.520;-0.224;2023-05-02T11:35:24;102687.45;;;13.36;37.19
76680;BME280;65597;51.520;-0.224;2023-05-02T11:37:52;102694.07;;;13.99;37.83
76680;BME280;65597;51.520;-0.224;2023-05-02T11:40:19;102689.07;;;14.10;35.90
76680;BME280;65597;51.520;-0.224;2023-05-02T11:42:40;102695.75;;;13.94;35.61
76680;BME280;65597;51.520;-0.224;2023-05-02T11:45:06;102691.94;;;14.35;35.36
76680;BME280;65597;51.520;-0.224;2023-05-02T11:47:32;102691.58;;;14.64;35.90
76680;BME280;65597;51.520;-0.224;2023-05-02T11:49:56;102696.71;;;14.86;35.49
76680;BME280;65597;51.520;-0.224;2023-05-02T11:52:21;102697.09;;;14.38;35.70
76680;BME280;65597;51.520;-0.224;2023-05-02T11:54:45;102697.31;;;14.69;34.54
76680;BME280;65597;51.520;-0.224;2023-05-02T11:57:10;102699.04;;;14.82;35.34
76680;BME280;65597;51.520;-0.224;2023-05-02T11:59:49;102703.54;;;14.60;34.56
76680;BME280;65597;51.520;-0.224;2023-05-02T12:02:01;102715.25;;;14.78;34.36
76680;BME280;65597;51.520;-0.224;2023-05-02T12:04:26;102718.79;;;14.78;34.47
76680;BME280;65597;51.520;-0.224;2023-05-02T12:06:55;102716.27;;;14.94;34.00
76680;BME280;65597;51.520;-0.224;2023-05-02T12:09:17;102716.25;;;14.74;34.17
76680;BME280;65597;51.520;-0.224;2023-05-02T12:11:42;102711.41;;;15.46;33.43
76680;BME280;65597;51.520;-0.224;2023-05-02T12:14:08;102712.91;;;15.27;33.35
76680;BME280;65597;51.520;-0.224;2023-05-02T12:16:33;102715.66;;;15.00;32.97
76680;BME280;65597;51.520;-0.224;2023-05-02T12:18:58;102719.21;;;13.99;33.66
76680;BME280;65597;51.520;-0.224;2023-05-02T12:21:24;102719.91;;;14.62;33.39
76680;BME280;65597;51.520;-0.224;2023-05-02T12:23:49;102718.80;;;14.21;33.36
76680;BME280;65597;51.520;-0.224;2023-05-02T12:26:16;102718.26;;;14.76;33.72
76680;BME280;65597;51.520;-0.224;2023-05-02T12:28:47;102717.10;;;14.83;33.11
76680;BME280;65597;51.520;-0.224;2023-05-02T12:31:10;102717.77;;;14.72;33.07
76680;BME280;65597;51.520;-0.224;2023-05-02T12:33:40;102713.59;;;14.90;33.62
76680;BME280;65597;51.520;-0.224;2023-05-02T12:36:04;102721.68;;;15.11;32.75
76680;BME280;65597;51.520;-0.224;2023-05-02T12:38:20;102722.32;;;14.58;32.87
76680;BME280;65597;51.520;-0.224;2023-05-02T12:40:48;102725.68;;;14.67;33.15